sensor_id;sensor_type;location;lat;lon;timestamp;pressure;altitude;pressure_sealevel;temperature;humidity
62124;BME280;48110;47.532;19.078;2022-07-10T00:00:34;100404.94;;;19.16;58.75
62124;BME280;48110;47.532;19.078;2022-07-10T00:03:40;100402.09;;;19.11;59.40
62124;BME280;48110;47.532;19.078;2022-07-10T00:06:42;100406.50;;;19.05;59.94
62124;BME280;48110;47.532;19.078;2022-07-10T00:09:49;100400.28;;;18.87;61.08
62124;BME280;48110;47.532;19.078;2022-07-10T00:12:52;100393.63;;;18.89;61.65
62124;BME280;48110;47.532;19.078;2022-07-10T00:15:55;100401.81;;;18.76;62.72
62124;BME280;48110;47.532;19.078;2022-07-10T00:18:57;100388.22;;;18.71;63.58
62124;BME280;48110;47.532;19.078;2022-07-10T00:22:00;100391.12;;;18.70;64.11
62124;BME280;48110;47.532;19.078;2022-07-10T00:25:04;100382.22;;;18.44;65.64
62124;BME280;48110;47.532;19.078;2022-07-10T00:28:07;100394.59;;;18.45;66.13
62124;BME280;48110;47.532;19.078;2022-07-10T00:31:10;100386.16;;;18.42;66.29
62124;BME280;48110;47.532;19.078;2022-07-10T00:34:13;100382.09;;;18.33;67.06
62124;BME280;48110;47.532;19.078;2022-07-10T00:37:16;100395.81;;;18.24;67.62
62124;BME280;48110;47.532;19.078;2022-07-10T00:40:18;100388.41;;;18.20;68.03
62124;BME280;48110;47.532;19.078;2022-07-10T00:43:22;100387.25;;;18.34;67.67
62124;BME280;48110;47.532;19.078;2022-07-10T00:46:26;100401.09;;;18.31;68.10
62124;BME280;48110;47.532;19.078;2022-07-10T00:49:29;100391.50;;;18.17;68.89
62124;BME280;48110;47.532;19.078;2022-07-10T00:52:33;100383.88;;;18.14;69.27
62124;BME280;48110;47.532;19.078;2022-07-10T00:55:41;100380.97;;;18.15;69.50
62124;BME280;48110;47.532;19.078;2022-07-10T00:58:45;100376.31;;;18.04;70.10
62124;BME280;48110;47.532;19.078;2022-07-10T01:01:49;100376.31;;;18.04;70.29
62124;BME280;48110;47.532;19.078;2022-07-10T01:04:52;100376.97;;;18.00;70.63
62124;BME280;48110;47.532;19.078;2022-07-10T01:07:54;100367.25;;;17.99;70.92
62124;BME280;48110;47.532;19.078;2022-07-10T01:10:57;100368.66;;;18.01;70.99
62124;BME280;48110;47.532;19.078;2022-07-10T01:14:00;100371.16;;;18.03;70.87
62124;BME280;48110;47.532;19.078;2022-07-10T01:17:04;100367.44;;;18.04;70.81
62124;BME280;48110;47.532;19.078;2022-07-10T01:20:09;100356.59;;;17.86;71.71
62124;BME280;48110;47.532;19.078;2022-07-10T01:23:12;100370.03;;;17.86;72.12
62124;BME280;48110;47.532;19.078;2022-07-10T01:26:14;100364.66;;;17.86;71.92
62124;BME280;48110;47.532;19.078;2022-07-10T01:29:17;100357.84;;;17.83;72.18
62124;BME280;48110;47.532;19.078;2022-07-10T01:32:19;100363.66;;;17.80;72.22
62124;BME280;48110;47.532;19.078;2022-07-10T01:35:22;100365.31;;;17.81;72.25
62124;BME280;48110;47.532;19.078;2022-07-10T01:38:25;100350.72;;;17.70;72.86
62124;BME280;48110;47.532;19.078;2022-07-10T01:41:27;100349.41;;;17.79;72.86
62124;BME280;48110;47.532;19.078;2022-07-10T01:44:30;100341.25;;;17.55;74.38
62124;BME280;48110;47.532;19.078;2022-07-10T01:47:33;100334.94;;;17.43;75.00
62124;BME280;48110;47.532;19.078;2022-07-10T01:50:36;100333.88;;;17.44;75.30
62124;BME280;48110;47.532;19.078;2022-07-10T01:53:39;100336.00;;;17.28;76.07
62124;BME280;48110;47.532;19.078;2022-07-10T01:56:42;100325.06;;;17.36;76.08
62124;BME280;48110;47.532;19.078;2022-07-10T01:59:45;100325.09;;;17.23;76.84
62124;BME280;48110;47.532;19.078;2022-07-10T02:02:47;100322.69;;;17.09;77.53
62124;BME280;48110;47.532;19.078;2022-07-10T02:06:10;100326.81;;;17.05;77.99
62124;BME280;48110;47.532;19.078;2022-07-10T02:09:13;100327.00;;;17.10;78.23
62124;BME280;48110;47.532;19.078;2022-07-10T02:12:17;100325.53;;;17.14;78.15
62124;BME280;48110;47.532;19.078;2022-07-10T02:15:19;100319.00;;;17.03;78.98
62124;BME280;48110;47.532;19.078;2022-07-10T02:18:22;100335.50;;;16.93;79.11
62124;BME280;48110;47.532;19.078;2022-07-10T02:21:25;100324.38;;;16.90;80.82
62124;BME280;48110;47.532;19.078;2022-07-10T02:24:28;100321.28;;;16.80;80.62
62124;BME280;48110;47.532;19.078;2022-07-10T02:27:31;100322.75;;;16.82;80.71
62124;BME280;48110;47.532;19.078;2022-07-10T02:30:33;100321.09;;;16.81;81.19
62124;BME280;48110;47.532;19.078;2022-07-10T02:33:36;100317.59;;;16.81;81.08
62124;BME280;48110;47.532;19.078;2022-07-10T02:36:39;100320.06;;;16.76;81.61
62124;BME280;48110;47.532;19.078;2022-07-10T02:39:42;100316.81;;;16.67;82.31
62124;BME280;48110;47.532;19.078;2022-07-10T02:42:44;100310.03;;;16.58;83.04
62124;BME280;48110;47.532;19.078;2022-07-10T02:45:47;100314.13;;;16.61;83.44
62124;BME280;48110;47.532;19.078;2022-07-10T02:48:50;100316.19;;;16.45;84.28
62124;BME280;48110;47.532;19.078;2022-07-10T02:51:53;100320.28;;;16.41;84.71
62124;BME280;48110;47.532;19.078;2022-07-10T02:54:56;100321.53;;;16.39;84.97
62124;BME280;48110;47.532;19.078;2022-07-10T02:57:58;100319.09;;;16.31;85.59
62124;BME280;48110;47.532;19.078;2022-07-10T03:01:06;100318.66;;;16.27;85.85
62124;BME280;48110;47.532;19.078;2022-07-10T03:04:09;100326.28;;;16.37;86.35
62124;BME280;48110;47.532;19.078;2022-07-10T03:07:11;100311.87;;;16.25;86.19
62124;BME280;48110;47.532;19.078;2022-07-10T03:10:14;100320.12;;;16.17;86.80
62124;BME280;48110;47.532;19.078;2022-07-10T03:13:17;100320.69;;;16.12;87.27
62124;BME280;48110;47.532;19.078;2022-07-10T03:16:19;100329.16;;;16.09;87.71
62124;BME280;48110;47.532;19.078;2022-07-10T03:19:22;100328.34;;;16.28;86.73
62124;BME280;48110;47.532;19.078;2022-07-10T03:22:25;100333.91;;;16.20;87.06
62124;BME280;48110;47.532;19.078;2022-07-10T03:25:28;100330.81;;;16.10;87.67
62124;BME280;48110;47.532;19.078;2022-07-10T03:28:30;100336.56;;;16.14;87.73
62124;BME280;48110;47.532;19.078;2022-07-10T03:31:33;100321.75;;;16.11;87.80
62124;BME280;48110;47.532;19.078;2022-07-10T03:34:36;100323.59;;;16.11;88.09
62124;BME280;48110;47.532;19.078;2022-07-10T03:37:39;100319.28;;;16.16;88.12
62124;BME280;48110;47.532;19.078;2022-07-10T03:40:41;100320.09;;;16.10;88.48
62124;BME280;48110;47.532;19.078;2022-07-10T03:43:44;100319.47;;;16.15;88.42
62124;BME280;48110;47.532;19.078;2022-07-10T03:46:47;100320.09;;;16.23;88.08
62124;BME280;48110;47.532;19.078;2022-07-10T03:49:50;100317.44;;;16.17;88.33
62124;BME280;48110;47.532;19.078;2022-07-10T03:52:52;100311.03;;;16.24;88.20
62124;BME280;48110;47.532;19.078;2022-07-10T03:55:55;100306.31;;;16.26;88.01
62124;BME280;48110;47.532;19.078;2022-07-10T03:58:57;100313.09;;;16.35;87.69
62124;BME280;48110;47.532;19.078;2022-07-10T04:02:00;100302.38;;;16.42;87.27
62124;BME280;48110;47.532;19.078;2022-07-10T04:05:09;100305.28;;;16.40;87.21
62124;BME280;48110;47.532;19.078;2022-07-10T04:08:12;100293.53;;;16.48;86.91
62124;BME280;48110;47.532;19.078;2022-07-10T04:11:15;100300.31;;;16.57;86.31
62124;BME280;48110;47.532;19.078;2022-07-10T04:14:18;100297.63;;;16.57;86.43
62124;BME280;48110;47.532;19.078;2022-07-10T04:17:20;100300.50;;;16.56;86.23
62124;BME280;48110;47.532;19.078;2022-07-10T04:20:23;100308.37;;;16.50;86.62
62124;BME280;48110;47.532;19.078;2022-07-10T04:23:27;100291.87;;;16.47;86.68
62124;BME280;48110;47.532;19.078;2022-07-10T04:26:33;100293.50;;;16.41;86.84
62124;BME280;48110;47.532;19.078;2022-07-10T04:29:36;100300.97;;;16.59;85.85
62124;BME280;48110;47.532;19.078;2022-07-10T04:32:38;100299.91;;;16.67;85.33
62124;BME280;48110;47.532;19.078;2022-07-10T04:35:41;100292.06;;;16.72;85.17
62124;BME280;48110;47.532;19.078;2022-07-10T04:38:45;100286.50;;;16.67;85.19
62124;BME280;48110;47.532;19.078;2022-07-10T04:41:48;100293.31;;;16.69;85.03
62124;BME280;48110;47.532;19.078;2022-07-10T04:44:50;100290.59;;;16.82;84.73
62124;BME280;48110;47.532;19.078;2022-07-10T04:47:53;100289.19;;;16.73;85.51
62124;BME280;48110;47.532;19.078;2022-07-10T04:50:55;100292.00;;;16.91;84.66
62124;BME280;48110;47.532;19.078;2022-07-10T04:53:58;100286.12;;;16.63;85.79
62124;BME280;48110;47.532;19.078;2022-07-10T04:57:01;100290.22;;;16.66;85.84
62124;BME280;48110;47.532;19.078;2022-07-10T05:00:05;100285.28;;;16.63;85.84
62124;BME280;48110;47.532;19.078;2022-07-10T05:03:07;100288.56;;;16.71;85.50
62124;BME280;48110;47.532;19.078;2022-07-10T05:06:10;100282.75;;;16.87;85.09
62124;BME280;48110;47.532;19.078;2022-07-10T05:09:13;100281.28;;;16.91;84.98
62124;BME280;48110;47.532;19.078;2022-07-10T05:12:16;100273.44;;;17.03;84.18
62124;BME280;48110;47.532;19.078;2022-07-10T05:15:19;100283.50;;;17.08;83.90
62124;BME280;48110;47.532;19.078;2022-07-10T05:18:21;100272.78;;;17.08;83.64
62124;BME280;48110;47.532;19.078;2022-07-10T05:21:24;100275.03;;;17.17;83.31
62124;BME280;48110;47.532;19.078;2022-07-10T05:24:28;100277.19;;;17.33;81.92
62124;BME280;48110;47.532;19.078;2022-07-10T05:27:30;100279.41;;;17.43;81.99
62124;BME280;48110;47.532;19.078;2022-07-10T05:30:33;100273.56;;;17.53;80.93
62124;BME280;48110;47.532;19.078;2022-07-10T05:33:36;100266.97;;;17.62;80.49
62124;BME280;48110;47.532;19.078;2022-07-10T05:36:42;100273.53;;;17.66;79.85
62124;BME280;48110;47.532;19.078;2022-07-10T05:39:44;100275.84;;;17.87;78.58
62124;BME280;48110;47.532;19.078;2022-07-10T05:42:47;100279.66;;;17.79;78.97
62124;BME280;48110;47.532;19.078;2022-07-10T05:45:50;100275.56;;;17.70;79.26
62124;BME280;48110;47.532;19.078;2022-07-10T05:49:00;100277.34;;;17.83;78.55
62124;BME280;48110;47.532;19.078;2022-07-10T05:52:03;100273.66;;;17.77;78.15
62124;BME280;48110;47.532;19.078;2022-07-10T05:55:07;100274.63;;;17.90;77.68
62124;BME280;48110;47.532;19.078;2022-07-10T05:58:10;100268.25;;;17.84;77.54
62124;BME280;48110;47.532;19.078;2022-07-10T06:01:14;100278.69;;;17.99;77.60
62124;BME280;48110;47.532;19.078;2022-07-10T06:04:17;100276.47;;;17.89;77.67
62124;BME280;48110;47.532;19.078;2022-07-10T06:07:20;100271.28;;;17.94;77.31
62124;BME280;48110;47.532;19.078;2022-07-10T06:10:23;100268.03;;;17.86;77.34
62124;BME280;48110;47.532;19.078;2022-07-10T06:13:25;100273.69;;;18.02;76.24
62124;BME280;48110;47.532;19.078;2022-07-10T06:16:28;100272.31;;;17.93;76.20
62124;BME280;48110;47.532;19.078;2022-07-10T06:19:31;100276.16;;;18.04;75.91
62124;BME280;48110;47.532;19.078;2022-07-10T06:22:33;100265.38;;;18.10;75.32
62124;BME280;48110;47.532;19.078;2022-07-10T06:25:36;100266.00;;;18.31;74.69
62124;BME280;48110;47.532;19.078;2022-07-10T06:28:39;100276.25;;;18.40;73.34
62124;BME280;48110;47.532;19.078;2022-07-10T06:31:42;100277.22;;;18.46;72.44
62124;BME280;48110;47.532;19.078;2022-07-10T06:34:46;100271.25;;;18.69;71.15
62124;BME280;48110;47.532;19.078;2022-07-10T06:37:49;100279.84;;;18.77;69.79
62124;BME280;48110;47.532;19.078;2022-07-10T06:40:53;100273.12;;;18.68;70.05
62124;BME280;48110;47.532;19.078;2022-07-10T06:43:55;100271.47;;;18.85;69.20
62124;BME280;48110;47.532;19.078;2022-07-10T06:46:59;100269.31;;;19.12;68.63
62124;BME280;48110;47.532;19.078;2022-07-10T06:50:21;100278.19;;;19.42;66.74
62124;BME280;48110;47.532;19.078;2022-07-10T06:53:24;100268.13;;;19.38;65.67
62124;BME280;48110;47.532;19.078;2022-07-10T06:56:29;100273.84;;;19.60;65.49
62124;BME280;48110;47.532;19.078;2022-07-10T06:59:32;100266.53;;;19.90;64.10
62124;BME280;48110;47.532;19.078;2022-07-10T07:02:35;100263.31;;;20.11;61.47
62124;BME280;48110;47.532;19.078;2022-07-10T07:05:38;100261.69;;;20.22;60.84
62124;BME280;48110;47.532;19.078;2022-07-10T07:08:40;100262.19;;;20.42;59.33
62124;BME280;48110;47.532;19.078;2022-07-10T07:11:45;100266.03;;;20.69;58.24
62124;BME280;48110;47.532;19.078;2022-07-10T07:14:48;100271.44;;;20.46;58.32
62124;BME280;48110;47.532;19.078;2022-07-10T07:17:51;100263.78;;;20.78;57.32
62124;BME280;48110;47.532;19.078;2022-07-10T07:21:00;100260.34;;;20.94;56.38
62124;BME280;48110;47.532;19.078;2022-07-10T07:24:21;100257.37;;;21.19;55.96
62124;BME280;48110;47.532;19.078;2022-07-10T07:27:24;100262.34;;;20.99;57.18
62124;BME280;48110;47.532;19.078;2022-07-10T07:30:28;100267.13;;;21.08;56.17
62124;BME280;48110;47.532;19.078;2022-07-10T07:33:32;100267.31;;;20.78;56.05
62124;BME280;48110;47.532;19.078;2022-07-10T07:36:36;100271.34;;;21.04;55.59
62124;BME280;48110;47.532;19.078;2022-07-10T07:39:38;100275.31;;;21.53;54.51
62124;BME280;48110;47.532;19.078;2022-07-10T07:42:42;100274.31;;;22.38;52.38
62124;BME280;48110;47.532;19.078;2022-07-10T07:45:45;100275.13;;;23.15;48.30
62124;BME280;48110;47.532;19.078;2022-07-10T07:48:48;100269.81;;;24.01;47.18
62124;BME280;48110;47.532;19.078;2022-07-10T07:51:50;100266.19;;;25.06;45.28
62124;BME280;48110;47.532;19.078;2022-07-10T07:54:53;100261.25;;;24.14;45.06
62124;BME280;48110;47.532;19.078;2022-07-10T07:57:56;100260.63;;;24.86;44.03
62124;BME280;48110;47.532;19.078;2022-07-10T08:00:59;100252.84;;;24.99;42.88
62124;BME280;48110;47.532;19.078;2022-07-10T08:04:02;100255.41;;;24.27;43.88
62124;BME280;48110;47.532;19.078;2022-07-10T08:07:11;100256.31;;;24.43;42.75
62124;BME280;48110;47.532;19.078;2022-07-10T08:10:19;100252.47;;;23.70;44.94
62124;BME280;48110;47.532;19.078;2022-07-10T08:13:22;100257.13;;;23.74;44.03
62124;BME280;48110;47.532;19.078;2022-07-10T08:16:25;100250.97;;;23.84;44.99
62124;BME280;48110;47.532;19.078;2022-07-10T08:19:27;100260.16;;;24.99;42.33
62124;BME280;48110;47.532;19.078;2022-07-10T08:22:30;100254.69;;;26.07;40.00
62124;BME280;48110;47.532;19.078;2022-07-10T08:25:33;100253.75;;;25.25;40.06
62124;BME280;48110;47.532;19.078;2022-07-10T08:28:37;100253.63;;;24.95;40.92
62124;BME280;48110;47.532;19.078;2022-07-10T08:31:40;100260.78;;;24.22;42.51
62124;BME280;48110;47.532;19.078;2022-07-10T08:34:43;100255.44;;;25.41;39.92
62124;BME280;48110;47.532;19.078;2022-07-10T08:37:49;100253.06;;;25.85;39.55
62124;BME280;48110;47.532;19.078;2022-07-10T08:40:53;100263.63;;;25.67;39.17
62124;BME280;48110;47.532;19.078;2022-07-10T08:43:59;100256.53;;;24.36;41.24
62124;BME280;48110;47.532;19.078;2022-07-10T08:47:02;100263.19;;;25.12;40.02
62124;BME280;48110;47.532;19.078;2022-07-10T08:50:17;100261.88;;;23.14;45.37
62124;BME280;48110;47.532;19.078;2022-07-10T08:53:34;100261.50;;;22.67;46.01
62124;BME280;48110;47.532;19.078;2022-07-10T08:56:37;100253.91;;;22.47;46.23
62124;BME280;48110;47.532;19.078;2022-07-10T08:59:39;100244.31;;;23.16;44.58
62124;BME280;48110;47.532;19.078;2022-07-10T09:02:42;100245.25;;;24.96;40.50
62124;BME280;48110;47.532;19.078;2022-07-10T09:05:45;100260.66;;;25.68;36.94
62124;BME280;48110;47.532;19.078;2022-07-10T09:09:05;100251.16;;;25.81;37.24
62124;BME280;48110;47.532;19.078;2022-07-10T09:12:10;100245.97;;;26.50;37.14
62124;BME280;48110;47.532;19.078;2022-07-10T09:15:18;100248.09;;;24.80;40.33
62124;BME280;48110;47.532;19.078;2022-07-10T09:18:23;100243.13;;;23.56;43.38
62124;BME280;48110;47.532;19.078;2022-07-10T09:21:32;100244.72;;;22.65;45.44
62124;BME280;48110;47.532;19.078;2022-07-10T09:24:40;100249.97;;;22.54;44.76
62124;BME280;48110;47.532;19.078;2022-07-10T09:27:53;100245.66;;;24.73;40.69
62124;BME280;48110;47.532;19.078;2022-07-10T09:31:00;100251.72;;;25.93;36.36
62124;BME280;48110;47.532;19.078;2022-07-10T09:34:03;100239.94;;;27.33;33.75
62124;BME280;48110;47.532;19.078;2022-07-10T09:37:25;100244.31;;;27.29;35.13
62124;BME280;48110;47.532;19.078;2022-07-10T09:40:31;100229.59;;;27.30;34.74
62124;BME280;48110;47.532;19.078;2022-07-10T09:43:59;100221.94;;;27.76;34.06
62124;BME280;48110;47.532;19.078;2022-07-10T09:47:03;100222.69;;;28.20;32.24
62124;BME280;48110;47.532;19.078;2022-07-10T09:50:25;100223.31;;;28.12;32.49
62124;BME280;48110;47.532;19.078;2022-07-10T09:53:28;100225.50;;;26.63;35.24
62124;BME280;48110;47.532;19.078;2022-07-10T09:56:48;100231.88;;;26.23;36.21
62124;BME280;48110;47.532;19.078;2022-07-10T09:59:55;100216.47;;;26.77;35.40
62124;BME280;48110;47.532;19.078;2022-07-10T10:02:59;100214.88;;;28.03;32.96
62124;BME280;48110;47.532;19.078;2022-07-10T10:06:19;100208.44;;;27.60;33.30
62124;BME280;48110;47.532;19.078;2022-07-10T10:09:24;100205.53;;;27.42;33.35
62124;BME280;48110;47.532;19.078;2022-07-10T10:12:34;100201.91;;;27.90;33.01
62124;BME280;48110;47.532;19.078;2022-07-10T10:15:38;100199.84;;;29.25;30.82
62124;BME280;48110;47.532;19.078;2022-07-10T10:18:44;100194.47;;;30.36;29.04
62124;BME280;48110;47.532;19.078;2022-07-10T10:22:07;100200.22;;;29.00;30.36
62124;BME280;48110;47.532;19.078;2022-07-10T10:25:17;100191.34;;;28.89;30.65
62124;BME280;48110;47.532;19.078;2022-07-10T10:28:21;100189.34;;;29.69;28.80
62124;BME280;48110;47.532;19.078;2022-07-10T10:31:27;100201.09;;;30.35;27.93
62124;BME280;48110;47.532;19.078;2022-07-10T10:34:42;100180.94;;;28.91;29.29
62124;BME280;48110;47.532;19.078;2022-07-10T10:37:50;100178.19;;;29.10;28.90
62124;BME280;48110;47.532;19.078;2022-07-10T10:40:53;100170.00;;;28.67;29.76
62124;BME280;48110;47.532;19.078;2022-07-10T10:47:18;100168.41;;;27.56;30.77
62124;BME280;48110;47.532;19.078;2022-07-10T10:50:41;100166.16;;;28.92;28.80
62124;BME280;48110;47.532;19.078;2022-07-10T10:54:04;100162.78;;;29.00;29.15
62124;BME280;48110;47.532;19.078;2022-07-10T10:57:11;100165.63;;;28.47;28.85
62124;BME280;48110;47.532;19.078;2022-07-10T11:00:15;100163.38;;;29.86;27.92
62124;BME280;48110;47.532;19.078;2022-07-10T11:03:31;100154.28;;;27.54;30.35
62124;BME280;48110;47.532;19.078;2022-07-10T11:09:43;100155.31;;;30.08;26.11
62124;BME280;48110;47.532;19.078;2022-07-10T11:16:12;100149.84;;;29.24;25.54
62124;BME280;48110;47.532;19.078;2022-07-10T11:19:20;100148.84;;;29.71;25.63
62124;BME280;48110;47.532;19.078;2022-07-10T11:25:52;100162.69;;;29.05;27.29
62124;BME280;48110;47.532;19.078;2022-07-10T11:29:10;100150.94;;;28.43;27.25
62124;BME280;48110;47.532;19.078;2022-07-10T11:32:15;100147.84;;;29.30;27.26
62124;BME280;48110;47.532;19.078;2022-07-10T11:35:19;100144.38;;;29.94;26.18
62124;BME280;48110;47.532;19.078;2022-07-10T11:38:26;100158.87;;;28.87;27.63
62124;BME280;48110;47.532;19.078;2022-07-10T11:41:30;100168.00;;;28.30;27.77
62124;BME280;48110;47.532;19.078;2022-07-10T11:44:32;100163.47;;;28.21;27.34
62124;BME280;48110;47.532;19.078;2022-07-10T11:47:38;100170.97;;;29.56;26.39
62124;BME280;48110;47.532;19.078;2022-07-10T11:50:41;100178.44;;;27.60;29.25
62124;BME280;48110;47.532;19.078;2022-07-10T11:54:14;100182.91;;;26.28;31.12
62124;BME280;48110;47.532;19.078;2022-07-10T11:57:18;100176.94;;;27.44;29.95
62124;BME280;48110;47.532;19.078;2022-07-10T12:00:26;100172.97;;;27.21;30.12
62124;BME280;48110;47.532;19.078;2022-07-10T12:03:29;100167.78;;;28.27;28.93
62124;BME280;48110;47.532;19.078;2022-07-10T12:06:33;100169.16;;;29.52;27.40
62124;BME280;48110;47.532;19.078;2022-07-10T12:09:37;100181.12;;;28.76;28.66
62124;BME280;48110;47.532;19.078;2022-07-10T12:12:42;100169.28;;;27.80;29.66
62124;BME280;48110;47.532;19.078;2022-07-10T12:15:45;100177.44;;;26.43;32.01
62124;BME280;48110;47.532;19.078;2022-07-10T12:18:49;100164.62;;;28.38;28.86
62124;BME280;48110;47.532;19.078;2022-07-10T12:21:52;100175.59;;;28.33;28.77
62124;BME280;48110;47.532;19.078;2022-07-10T12:24:59;100175.97;;;28.74;28.06
62124;BME280;48110;47.532;19.078;2022-07-10T12:28:02;100175.69;;;31.11;25.28
62124;BME280;48110;47.532;19.078;2022-07-10T12:31:05;100189.84;;;32.47;23.17
62124;BME280;48110;47.532;19.078;2022-07-10T12:34:09;100178.22;;;30.12;25.34
62124;BME280;48110;47.532;19.078;2022-07-10T12:37:14;100186.13;;;29.67;25.99
62124;BME280;48110;47.532;19.078;2022-07-10T12:40:31;100182.13;;;29.60;25.93
62124;BME280;48110;47.532;19.078;2022-07-10T12:43:34;100189.25;;;28.04;27.99
62124;BME280;48110;47.532;19.078;2022-07-10T12:46:37;100190.91;;;29.01;27.17
62124;BME280;48110;47.532;19.078;2022-07-10T12:50:15;100183.25;;;30.51;25.46
62124;BME280;48110;47.532;19.078;2022-07-10T12:53:20;100195.50;;;31.66;23.07
62124;BME280;48110;47.532;19.078;2022-07-10T12:56:55;100178.94;;;27.67;27.81
62124;BME280;48110;47.532;19.078;2022-07-10T13:00:04;100200.75;;;28.30;27.47
62124;BME280;48110;47.532;19.078;2022-07-10T13:03:09;100192.25;;;29.59;25.36
62124;BME280;48110;47.532;19.078;2022-07-10T13:06:29;100202.59;;;26.79;28.46
62124;BME280;48110;47.532;19.078;2022-07-10T13:09:32;100195.16;;;27.54;27.17
62124;BME280;48110;47.532;19.078;2022-07-10T13:12:41;100200.25;;;30.20;23.96
62124;BME280;48110;47.532;19.078;2022-07-10T13:15:45;100214.81;;;29.51;24.89
62124;BME280;48110;47.532;19.078;2022-07-10T13:18:59;100213.31;;;29.40;24.99
62124;BME280;48110;47.532;19.078;2022-07-10T13:22:02;100205.84;;;29.64;24.92
62124;BME280;48110;47.532;19.078;2022-07-10T13:25:05;100211.97;;;32.42;21.95
62124;BME280;48110;47.532;19.078;2022-07-10T13:28:09;100207.28;;;32.82;21.22
62124;BME280;48110;47.532;19.078;2022-07-10T13:31:17;100208.16;;;32.60;21.75
62124;BME280;48110;47.532;19.078;2022-07-10T13:34:20;100208.28;;;32.15;22.26
62124;BME280;48110;47.532;19.078;2022-07-10T13:37:22;100202.25;;;29.83;24.74
62124;BME280;48110;47.532;19.078;2022-07-10T13:40:29;100195.59;;;29.56;25.33
62124;BME280;48110;47.532;19.078;2022-07-10T13:43:32;100187.13;;;30.50;23.67
62124;BME280;48110;47.532;19.078;2022-07-10T13:46:36;100189.44;;;30.56;22.92
62124;BME280;48110;47.532;19.078;2022-07-10T13:49:40;100181.16;;;30.02;23.71
62124;BME280;48110;47.532;19.078;2022-07-10T13:52:43;100194.81;;;31.02;23.17
62124;BME280;48110;47.532;19.078;2022-07-10T13:55:47;100182.50;;;31.00;22.95
62124;BME280;48110;47.532;19.078;2022-07-10T13:58:50;100190.03;;;30.81;23.46
62124;BME280;48110;47.532;19.078;2022-07-10T14:01:53;100171.78;;;30.35;22.82
62124;BME280;48110;47.532;19.078;2022-07-10T14:04:56;100172.78;;;30.39;22.67
62124;BME280;48110;47.532;19.078;2022-07-10T14:07:59;100177.81;;;31.72;21.65
62124;BME280;48110;47.532;19.078;2022-07-10T14:11:02;100190.16;;;28.95;22.84
62124;BME280;48110;47.532;19.078;2022-07-10T14:14:04;100195.72;;;29.97;21.83
62124;BME280;48110;47.532;19.078;2022-07-10T14:17:07;100191.81;;;29.85;21.33
62124;BME280;48110;47.532;19.078;2022-07-10T14:20:11;100186.19;;;30.82;20.33
62124;BME280;48110;47.532;19.078;2022-07-10T14:23:14;100183.03;;;32.92;18.25
62124;BME280;48110;47.532;19.078;2022-07-10T14:26:16;100182.34;;;29.07;21.84
62124;BME280;48110;47.532;19.078;2022-07-10T14:29:20;100166.69;;;27.94;23.40
62124;BME280;48110;47.532;19.078;2022-07-10T14:32:24;100173.91;;;26.43;25.54
62124;BME280;48110;47.532;19.078;2022-07-10T14:35:27;100185.16;;;26.85;25.35
62124;BME280;48110;47.532;19.078;2022-07-10T14:38:30;100174.72;;;26.38;25.85
62124;BME280;48110;47.532;19.078;2022-07-10T14:41:34;100169.28;;;26.43;25.86
62124;BME280;48110;47.532;19.078;2022-07-10T14:44:36;100187.84;;;26.95;25.04
62124;BME280;48110;47.532;19.078;2022-07-10T14:47:39;100194.19;;;27.74;23.97
62124;BME280;48110;47.532;19.078;2022-07-10T14:50:42;100191.62;;;28.40;23.27
62124;BME280;48110;47.532;19.078;2022-07-10T14:53:45;100201.81;;;29.43;22.06
62124;BME280;48110;47.532;19.078;2022-07-10T14:56:49;100212.16;;;31.12;20.51
62124;BME280;48110;47.532;19.078;2022-07-10T14:59:52;100203.66;;;31.35;20.03
62124;BME280;48110;47.532;19.078;2022-07-10T15:02:54;100206.41;;;32.02;19.36
62124;BME280;48110;47.532;19.078;2022-07-10T15:06:05;100213.56;;;31.45;19.65
62124;BME280;48110;47.532;19.078;2022-07-10T15:09:07;100204.41;;;29.29;22.13
62124;BME280;48110;47.532;19.078;2022-07-10T15:12:10;100215.25;;;30.37;20.89
62124;BME280;48110;47.532;19.078;2022-07-10T15:15:13;100213.28;;;27.69;23.31
62124;BME280;48110;47.532;19.078;2022-07-10T15:18:16;100220.28;;;28.14;22.52
62124;BME280;48110;47.532;19.078;2022-07-10T15:21:19;100219.47;;;28.89;21.55
62124;BME280;48110;47.532;19.078;2022-07-10T15:24:22;100227.03;;;29.54;20.92
62124;BME280;48110;47.532;19.078;2022-07-10T15:27:25;100213.66;;;31.18;19.33
62124;BME280;48110;47.532;19.078;2022-07-10T15:30:28;100225.25;;;29.07;21.55
62124;BME280;48110;47.532;19.078;2022-07-10T15:33:30;100224.00;;;25.66;25.77
62124;BME280;48110;47.532;19.078;2022-07-10T15:36:33;100233.13;;;23.56;29.18
62124;BME280;48110;47.532;19.078;2022-07-10T15:39:36;100225.12;;;22.74;30.78
62124;BME280;48110;47.532;19.078;2022-07-10T15:42:44;100221.38;;;23.46;29.69
62124;BME280;48110;47.532;19.078;2022-07-10T15:45:47;100230.47;;;23.13;30.31
62124;BME280;48110;47.532;19.078;2022-07-10T15:48:49;100226.56;;;23.04;30.62
62124;BME280;48110;47.532;19.078;2022-07-10T15:51:52;100231.94;;;22.22;31.45
62124;BME280;48110;47.532;19.078;2022-07-10T15:54:55;100231.19;;;22.09;31.21
62124;BME280;48110;47.532;19.078;2022-07-10T15:57:57;100232.47;;;23.22;29.30
62124;BME280;48110;47.532;19.078;2022-07-10T16:01:00;100229.69;;;25.64;25.94
62124;BME280;48110;47.532;19.078;2022-07-10T16:04:03;100244.13;;;25.90;25.37
62124;BME280;48110;47.532;19.078;2022-07-10T16:07:06;100236.81;;;24.46;26.84